Terminal Aerodrome Forecast
Issued by NWS Tampa Bay Area, FL

Current Version | Previous Version | Text Only | Print | Product List | Glossary On
Versions: 1 2 3 4 5 6 7 8 9 10 11 12 13 14 15 16 17 18 19 20 21 22 23 24 25
000
FTUS42 KTBW 152300
TAFTPA
TAF
KTPA 152337Z 1600/1624 29007KT P6SM FEW040 BKN250
     FM160200 VRB03KT P6SM SCT250
     FM161500 25006KT P6SM FEW050 BKN250
     FM161800 28007KT P6SM VCTS SCT040CB BKN250=

USA.gov is the U.S. government's official web portal to all federal, state and local government web resources and services.